dubrovnikpress.hr alexa rank chart, dubrovnikpress.hr alexa rank daily changes

dubrovnikpress.hr alexa rank chart, dubrovnikpress.hr alexa rank daily changes

dubrovnikpress.hr
Actual rank:
699 162

RANK HISTORY

Date Rank Diff
2017/08/22 699 162 -15 817
2017/08/21 714 979 +4 988
2017/08/20 709 991 +25 155
2017/08/19 684 836 +29 698
2017/08/18 655 138 +14 354
2017/08/17 640 784 +12 451
2017/08/16 628 333 -474
2017/08/15 628 807 -284
2017/08/14 629 091 +4 126
2017/08/13 624 965 -2 893
2017/08/12 627 858 +4 170
2017/08/11 623 688 +8 731
2017/08/10 614 957 +4 545
2017/08/09 610 412 +6 229
2017/08/08 604 183 +3 572
2017/08/07 600 611 +7 249
2017/08/06 593 362 -2 341
2017/08/05 595 703 +3 196
2017/08/04 592 507 +1 074
2017/08/03 591 433 +8 907
2017/08/02 582 526 +10 005
2017/08/01 572 521 +1 142
2017/07/31 571 379 +17 592
2017/07/30 553 787 -11 230
2017/07/29 565 017 -6 500
2017/07/28 571 517 +2 562
2017/07/27 568 955 +1 654
2017/07/26 567 301 +7 938
2017/07/25 559 363 -9 220
2017/07/24 568 583 +3 733
2017/07/23 564 850 +6 914
2017/07/22 557 936 +4 387
2017/07/21 553 549 -7 737
2017/07/20 561 286 -22 909
2017/07/19 584 195 -11 799
2017/07/18 595 994 -5 189
2017/07/17 601 183 +11 250
2017/07/16 589 933 -893
2017/07/15 590 826 +5 042
2017/07/14 585 784 +10 737
2017/07/13 575 047 -1 666
2017/07/12 576 713 +9 831
2017/07/11 566 882 -3 266
2017/07/10 570 148 +1 042
2017/07/09 569 106 -2 665
2017/07/08 571 771 -6 150
2017/07/07 577 921 +1 377
2017/07/06 576 544 +10 884
2017/07/05 565 660 +8 737
2017/07/04 556 923 -1 294
2017/07/03 558 217 -21 920
2017/07/02 580 137 +978
2017/07/01 579 159 -8 771
2017/06/30 587 930 +6 377
2017/06/29 581 553 +17 811
2017/06/28 563 742 +6 407
2017/06/27 557 335 -2 164
2017/06/26 559 499 -4 300
2017/06/25 563 799 +4 513
2017/06/24 559 286 -7 712
2017/06/23 566 998

WIDGET FOR YOUR SITE

DOMAINS WITH THE NEAREST RANK

Domain Rank
spaceshipinstitute.org 699 157
nagoyakankohotel.co.jp 699 158
linfuyan.com 699 159
trafficjam.cn 699 160
europeanschoolnetacademy.eu 699 161
dubrovnikpress.hr 699 162
highlandcc.edu 699 163
spicygranny.tumblr.com 699 164
docketalarm.com 699 165
uporabnastran.si 699 166
politique-africaine.com 699 167

DOMAINS WITH THE NEAREST RANK BY TLD .hr

Domain Rank
philips.hr 695 180
mojevrijeme.hr 696 490
smartson.hr 696 578
aviokarte.hr 697 209
np-brijuni.hr 697 241
dubrovnikpress.hr 699 162
ffri.hr 699 586
mcdonalds.hr 700 114
usporedi.hr 700 334
crol.hr 700 918
hifimedia.hr 703 289